Terminal Aerodrome Forecast
Issued by NWS

Home | Current Version | Previous Version | Text Only | Print | Product List | Glossary On
Versions: 1 2 3 4 5 6 7 8 9 10 11
000
FTUS41 KPBZ 271100
TAFBVI
TAF
KBVI 271120Z 2712/2812 18005KT P6SM BKN035
     FM271500 19008KT P6SM BKN070
     FM280200 24005KT 4SM -RA OVC025=

USA.gov is the U.S. government's official web portal to all federal, state and local government web resources and services.